Time;durP1;ratioP1;P1;durP2;ratioP2;P2;SDS_P1;SDS_P2;PMS_P1;PMS_P2;Temp;Humidity;BMP_temperature;BMP_pressure;BME280_temperature;BME280_humidity;BME280_pressure;Samples;Min_cycle;Max_cycle;Signal;HPM_P1;HPM_P2
2022/05/26 00:00:01;;;;;;;0.00;0.00;;;13.70;99.90;;;;;;5054633;28;20072;-79
2022/05/26 00:02:27;;;;;;;0.43;0.03;;;13.70;99.90;;;;;;5055589;28;20068;-78
2022/05/26 00:04:52;;;;;;;0.15;0.15;;;13.70;99.90;;;;;;5038933;28;20047;-78
2022/05/26 00:07:18;;;;;;;0.10;0.10;;;13.70;99.90;;;;;;5055326;28;20083;-78
2022/05/26 00:09:44;;;;;;;0.00;0.00;;;13.70;99.90;;;;;;5055378;28;20049;-78
2022/05/26 00:12:13;;;;;;;0.20;0.17;;;13.70;99.90;;;;;;5055365;28;20041;-79
2022/05/26 00:14:40;;;;;;;0.00;0.00;;;13.70;99.90;;;;;;5055282;28;20480;-79
2022/05/26 00:17:06;;;;;;;0.73;0.47;;;13.60;99.90;;;;;;5055497;28;20135;-79
2022/05/26 00:19:33;;;;;;;0.68;0.57;;;13.70;99.90;;;;;;5038366;28;20072;-79
2022/05/26 00:21:59;;;;;;;0.10;0.08;;;13.70;99.90;;;;;;5038302;28;20056;-78
2022/05/26 00:24:25;;;;;;;0.30;0.30;;;13.70;99.90;;;;;;5055134;28;20041;-78
2022/05/26 00:26:51;;;;;;;0.03;0.03;;;13.70;99.90;;;;;;5038404;28;20060;-79
2022/05/26 00:29:16;;;;;;;0.13;0.13;;;13.70;99.90;;;;;;5055227;28;20048;-79
2022/05/26 00:31:42;;;;;;;1.15;0.22;;;13.80;99.90;;;;;;5038937;28;20442;-79
2022/05/26 00:34:08;;;;;;;0.00;0.00;;;13.80;99.90;;;;;;5038454;28;20045;-78
2022/05/26 00:36:43;;;;;;;0.00;0.00;;;13.80;99.90;;;;;;5054703;28;20045;-78
2022/05/26 00:39:16;;;;;;;0.00;0.00;;;13.70;99.90;;;;;;5038477;28;20056;-77
2022/05/26 00:41:48;;;;;;;0.00;0.00;;;13.70;99.90;;;;;;5054834;28;20055;-77
2022/05/26 00:44:15;;;;;;;0.00;0.00;;;13.70;99.90;;;;;;5055274;28;20048;-77
2022/05/26 00:47:03;;;;;;;2.50;0.57;;;13.60;99.90;;;;;;5054645;28;20069;-77
2022/05/26 00:49:35;;;;;;;0.00;0.00;;;13.60;99.90;;;;;;5054746;28;20045;-77
2022/05/26 00:52:02;;;;;;;0.00;0.00;;;13.60;99.90;;;;;;5054374;28;20090;-77
2022/05/26 00:54:28;;;;;;;0.20;0.20;;;13.60;99.90;;;;;;5054437;28;20103;-77
2022/05/26 00:57:03;;;;;;;0.20;0.20;;;13.60;99.90;;;;;;5054053;28;20060;-79
2022/05/26 00:59:40;;;;;;;;;;;13.50;99.90;;;;;;5038148;28;20044;-77
2022/05/26 01:02:07;;;;;;;0.20;0.20;;;13.60;99.90;;;;;;5054228;28;19920;-77
2022/05/26 01:04:40;;;;;;;0.00;0.00;;;13.60;99.90;;;;;;5037731;28;20061;-78
2022/05/26 01:07:13;;;;;;;0.68;0.68;;;13.60;99.90;;;;;;5054825;28;20451;-78
2022/05/26 01:09:39;;;;;;;0.70;0.32;;;13.60;99.90;;;;;;5054651;28;20128;-78
2022/05/26 01:12:05;;;;;;;0.00;0.00;;;13.60;99.90;;;;;;5036494;28;20611;-78
2022/05/26 01:14:37;;;;;;;0.20;0.20;;;13.60;99.90;;;;;;5054080;28;20048;-78
2022/05/26 01:17:17;;;;;;;0.03;0.00;;;13.60;99.90;;;;;;5037526;28;20422;-78
2022/05/26 01:20:11;;;;;;;0.22;0.08;;;13.60;99.90;;;;;;5054607;28;20057;-78
2022/05/26 01:22:54;;;;;;;0.00;0.00;;;13.50;99.90;;;;;;5054209;28;20041;-78
2022/05/26 01:25:51;;;;;;;0.60;0.25;;;13.50;99.90;;;;;;5037834;28;20099;-78
2022/05/26 01:28:40;;;;;;;1.98;0.52;;;13.50;99.90;;;;;;5053803;28;20060;-78
2022/05/26 01:31:41;;;;;;;0.05;0.05;;;13.40;99.90;;;;;;5054000;28;20048;-78
2022/05/26 01:34:25;;;;;;;0.47;0.47;;;13.40;99.90;;;;;;5054024;28;20044;-78
2022/05/26 01:37:22;;;;;;;0.20;0.20;;;13.40;99.90;;;;;;5053574;28;20045;-78
2022/05/26 01:40:10;;;;;;;0.00;0.00;;;13.40;99.90;;;;;;5053694;28;20136;-78
2022/05/26 01:42:46;;;;;;;0.10;0.00;;;13.40;99.90;;;;;;5053899;28;20048;-77
2022/05/26 01:45:26;;;;;;;0.28;0.03;;;13.40;99.90;;;;;;5053763;28;20044;-78
2022/05/26 01:47:55;;;;;;;0.47;0.47;;;13.30;99.90;;;;;;5036875;28;20487;-78
2022/05/26 01:50:24;;;;;;;0.20;0.20;;;13.40;99.90;;;;;;5036671;28;20088;-78
2022/05/26 01:53:27;;;;;;;0.10;0.10;;;13.30;99.90;;;;;;5053580;28;20041;-78
2022/05/26 01:56:09;;;;;;;0.00;0.00;;;13.40;99.90;;;;;;5053245;28;20063;-78
2022/05/26 01:58:51;;;;;;;0.20;0.20;;;13.30;99.90;;;;;;5036420;28;20253;-78
2022/05/26 02:01:22;;;;;;;0.10;0.10;;;13.30;99.90;;;;;;5054177;28;20057;-78
2022/05/26 02:03:49;;;;;;;0.35;0.35;;;13.30;99.90;;;;;;5053700;28;20041;-78
2022/05/26 02:06:22;;;;;;;0.20;0.20;;;13.30;99.90;;;;;;5053190;28;20080;-78
2022/05/26 02:09:06;;;;;;;0.00;0.00;;;13.30;99.90;;;;;;5053071;28;20053;-78
2022/05/26 02:11:36;;;;;;;0.10;0.10;;;13.40;99.90;;;;;;5053422;28;20045;-78
2022/05/26 02:14:12;;;;;;;0.60;0.25;;;13.40;99.90;;;;;;5053302;28;20126;-78
2022/05/26 02:17:01;;;;;;;0.17;0.17;;;13.40;99.90;;;;;;5036350;28;20049;-78
2022/05/26 02:19:48;;;;;;;0.10;0.10;;;13.40;99.90;;;;;;5053013;28;20128;-78
2022/05/26 02:22:35;;;;;;;0.10;0.10;;;13.40;99.90;;;;;;5052651;28;20083;-78
2022/05/26 02:25:07;;;;;;;0.35;0.15;;;13.40;99.90;;;;;;5036703;28;20083;-78
2022/05/26 02:27:34;;;;;;;0.85;0.65;;;13.40;99.90;;;;;;5052869;28;20091;-78
2022/05/26 02:30:01;;;;;;;1.00;0.68;;;13.40;99.90;;;;;;5036688;28;20144;-78
2022/05/26 02:32:39;;;;;;;0.00;0.00;;;13.40;99.90;;;;;;5053379;28;20052;-78
2022/05/26 02:35:12;;;;;;;1.85;0.30;;;13.40;99.90;;;;;;5053007;28;20041;-78
2022/05/26 02:37:39;;;;;;;0.40;0.40;;;13.40;99.90;;;;;;5035820;28;20555;-78
2022/05/26 02:40:07;;;;;;;0.32;0.32;;;13.40;99.90;;;;;;5052289;28;20061;-78
2022/05/26 02:42:34;;;;;;;2.92;0.47;;;13.40;99.90;;;;;;5051146;28;20135;-77
2022/05/26 02:45:00;;;;;;;0.43;0.40;;;13.40;99.90;;;;;;5052136;28;20049;-78
2022/05/26 02:48:02;;;;;;;0.22;0.17;;;13.50;99.90;;;;;;5036192;28;20045;-78
2022/05/26 02:50:56;;;;;;;2.25;0.88;;;13.50;99.90;;;;;;5052690;28;20052;-78
2022/05/26 02:53:40;;;;;;;0.45;0.45;;;13.50;99.90;;;;;;5049629;28;20144;-78
2022/05/26 02:56:30;;;;;;;0.20;0.10;;;13.50;99.90;;;;;;5052187;28;20413;-78
2022/05/26 02:59:12;;;;;;;1.65;1.55;;;13.50;99.90;;;;;;5035924;28;20072;-78
2022/05/26 03:02:04;;;;;;;0.00;0.00;;;13.50;99.90;;;;;;5052707;28;20047;-78
2022/05/26 03:04:35;;;;;;;0.95;0.90;;;13.50;99.90;;;;;;5035349;28;20408;-79
2022/05/26 03:07:07;;;;;;;1.00;0.85;;;13.50;99.90;;;;;;5052349;28;20053;-78
2022/05/26 03:09:35;;;;;;;1.98;0.40;;;13.60;99.90;;;;;;5036287;28;20392;-79
2022/05/26 03:12:01;;;;;;;0.47;0.47;;;13.60;99.90;;;;;;5052246;28;20508;-78
2022/05/26 03:14:26;;;;;;;0.30;0.30;;;13.60;99.90;;;;;;5052338;28;20048;-80
2022/05/26 03:16:53;;;;;;;0.00;0.00;;;13.60;99.90;;;;;;5052883;28;20443;-79
2022/05/26 03:19:19;;;;;;;0.00;0.00;;;13.60;99.90;;;;;;5052304;28;20059;-79
2022/05/26 03:21:46;;;;;;;0.03;0.03;;;13.60;99.90;;;;;;5052164;28;20485;-79
2022/05/26 03:24:12;;;;;;;1.45;0.90;;;13.60;99.90;;;;;;5052345;28;20131;-79
2022/05/26 03:26:38;;;;;;;0.22;0.10;;;13.60;99.90;;;;;;5052252;28;20049;-79
2022/05/26 03:29:04;;;;;;;1.10;0.38;;;13.60;99.90;;;;;;5035824;28;20111;-79
2022/05/26 03:31:31;;;;;;;1.05;0.50;;;13.60;99.90;;;;;;5052257;28;20072;-79
2022/05/26 03:42:16;;;;;;;2.67;0.68;;;13.70;99.90;;;;;;5056184;28;20456;-80
2022/05/26 03:44:43;;;;;;;0.20;0.20;;;13.70;99.90;;;;;;5055908;28;20136;-79
2022/05/26 03:47:09;;;;;;;0.22;0.22;;;13.60;99.90;;;;;;5039336;28;20048;-79
2022/05/26 03:49:34;;;;;;;0.75;0.60;;;13.60;99.90;;;;;;5039741;28;20048;-80
2022/05/26 03:52:01;;;;;;;0.10;0.10;;;13.60;99.90;;;;;;5039051;28;20147;-79
2022/05/26 03:54:27;;;;;;;1.00;0.30;;;13.60;99.90;;;;;;5055799;28;20051;-80
2022/05/26 03:56:52;;;;;;;0.13;0.13;;;13.70;99.90;;;;;;5038671;28;20049;-80
2022/05/26 03:59:19;;;;;;;0.65;0.65;;;13.70;99.90;;;;;;5038844;28;20057;-79
2022/05/26 04:01:44;;;;;;;0.00;0.00;;;13.70;99.90;;;;;;5038850;28;20144;-79
2022/05/26 04:04:11;;;;;;;1.35;0.55;;;13.70;99.90;;;;;;5038936;28;20092;-79
2022/05/26 04:06:37;;;;;;;0.10;0.00;;;13.70;99.90;;;;;;5038913;28;20052;-79
2022/05/26 04:09:03;;;;;;;0.08;0.08;;;13.70;99.90;;;;;;5055233;28;20041;-80
2022/05/26 04:11:29;;;;;;;16.55;1.50;;;13.70;99.90;;;;;;5055519;28;20087;-80
2022/05/26 04:13:55;;;;;;;0.00;0.00;;;13.70;99.90;;;;;;5055329;28;20485;-79
2022/05/26 04:16:21;;;;;;;0.00;0.00;;;13.80;99.90;;;;;;5054816;28;20049;-80
2022/05/26 04:18:47;;;;;;;0.10;0.10;;;13.70;99.90;;;;;;5055193;28;20060;-80
2022/05/26 04:21:14;;;;;;;0.35;0.35;;;13.70;99.90;;;;;;5055478;28;20103;-80
2022/05/26 04:23:40;;;;;;;2.28;0.70;;;13.80;99.90;;;;;;5038663;28;20408;-80
2022/05/26 04:26:08;;;;;;;0.20;0.20;;;13.80;99.90;;;;;;5055006;28;20131;-80
2022/05/26 04:28:35;;;;;;;3.72;0.60;;;13.80;99.90;;;;;;5055053;28;20499;-80
2022/05/26 04:31:01;;;;;;;1.17;0.45;;;13.80;99.90;;;;;;5038507;28;20060;-80
2022/05/26 04:33:27;;;;;;;0.20;0.20;;;13.90;99.90;;;;;;5038389;28;20052;-80
2022/05/26 04:35:54;;;;;;;0.77;0.47;;;13.90;99.90;;;;;;5054764;28;20495;-80
2022/05/26 04:38:19;;;;;;;0.25;0.00;;;13.90;99.90;;;;;;5038421;28;20094;-80
2022/05/26 04:40:54;;;;;;;0.22;0.13;;;13.90;99.90;;;;;;5054940;28;20427;-80
2022/05/26 04:43:20;;;;;;;0.00;0.00;;;13.90;99.90;;;;;;5055132;28;20135;-80
2022/05/26 04:45:46;;;;;;;0.52;0.35;;;13.90;99.90;;;;;;5054489;28;20148;-80
2022/05/26 04:48:12;;;;;;;0.00;0.00;;;13.90;99.90;;;;;;5038674;28;20045;-79
2022/05/26 04:50:38;;;;;;;0.80;0.43;;;14.00;99.90;;;;;;5038181;28;20052;-79
2022/05/26 04:53:03;;;;;;;0.45;0.43;;;13.90;99.90;;;;;;5054962;28;20090;-80
2022/05/26 04:55:29;;;;;;;1.45;0.70;;;13.90;99.90;;;;;;5037354;28;20485;-80
2022/05/26 04:57:55;;;;;;;0.00;0.00;;;13.90;99.90;;;;;;5054635;28;20061;-80
2022/05/26 05:00:20;;;;;;;0.03;0.00;;;13.80;99.90;;;;;;5055131;28;20052;-80
2022/05/26 05:02:46;;;;;;;0.40;0.20;;;13.80;99.90;;;;;;5038330;28;20409;-80
2022/05/26 05:05:12;;;;;;;1.20;0.40;;;13.80;99.90;;;;;;5054570;28;20048;-79
2022/05/26 05:07:38;;;;;;;1.35;0.38;;;13.90;99.90;;;;;;5037674;28;20067;-80
2022/05/26 05:10:04;;;;;;;0.10;0.10;;;13.80;99.90;;;;;;5054491;28;20045;-79
2022/05/26 05:12:30;;;;;;;0.00;0.00;;;13.90;99.90;;;;;;5037661;28;20049;-79
2022/05/26 05:14:57;;;;;;;0.10;0.10;;;14.00;99.90;;;;;;5054127;28;20048;-80
2022/05/26 05:17:25;;;;;;;0.05;0.05;;;14.10;99.90;;;;;;5037456;28;20191;-80
2022/05/26 05:19:51;;;;;;;0.00;0.00;;;14.30;99.90;;;;;;5054063;28;20044;-79
2022/05/26 05:22:29;;;;;;;0.38;0.25;;;14.20;99.90;;;;;;5037600;28;20420;-80
2022/05/26 05:25:04;;;;;;;0.00;0.00;;;14.20;99.90;;;;;;5054162;28;20048;-80
2022/05/26 05:27:49;;;;;;;0.08;0.00;;;14.30;99.90;;;;;;5054294;28;20092;-80
2022/05/26 05:30:24;;;;;;;0.00;0.00;;;14.40;99.90;;;;;;5037489;28;20052;-80
2022/05/26 05:33:13;;;;;;;;;;;14.60;99.90;;;;;;5037786;28;20094;-80
2022/05/26 05:35:48;;;;;;;0.00;0.00;;;14.70;99.90;;;;;;4996556;28;20509;-79
2022/05/26 05:38:15;;;;;;;0.00;0.00;;;14.80;99.90;;;;;;4996824;28;20057;-79
2022/05/26 05:40:41;;;;;;;0.30;0.30;;;14.80;99.90;;;;;;4996717;28;20062;-80
2022/05/26 05:43:07;;;;;;;0.35;0.10;;;14.80;99.90;;;;;;4996540;28;20046;-79
2022/05/26 05:45:37;;;;;;;1.65;0.22;;;14.80;99.90;;;;;;4996960;28;20046;-80
2022/05/26 05:48:03;;;;;;;0.00;0.00;;;14.90;99.90;;;;;;4980507;28;20065;-79
2022/05/26 05:50:29;;;;;;;0.00;0.00;;;14.90;99.90;;;;;;4980758;28;20061;-80
2022/05/26 05:52:54;;;;;;;0.00;0.00;;;14.90;99.90;;;;;;4996740;28;20137;-79
2022/05/26 05:55:20;;;;;;;0.50;0.30;;;14.90;99.90;;;;;;4996012;28;20145;-80
2022/05/26 05:57:46;;;;;;;0.00;0.00;;;15.00;99.90;;;;;;4979243;28;20053;-80
2022/05/26 06:00:12;;;;;;;0.32;0.10;;;15.00;99.90;;;;;;4980019;28;20174;-81
2022/05/26 06:02:37;;;;;;;0.00;0.00;;;15.00;99.90;;;;;;4980185;28;20053;-80
2022/05/26 06:05:04;;;;;;;0.00;0.00;;;15.10;99.90;;;;;;4979989;28;20045;-80
2022/05/26 06:07:30;;;;;;;0.00;0.00;;;15.10;99.90;;;;;;4995805;28;20045;-80
2022/05/26 06:09:56;;;;;;;0.00;0.00;;;15.10;99.90;;;;;;4996269;28;20538;-79
2022/05/26 06:12:22;;;;;;;0.25;0.25;;;15.10;99.90;;;;;;5000354;28;20061;-80
2022/05/26 06:14:48;;;;;;;0.00;0.00;;;15.10;99.90;;;;;;5052686;28;20080;-80
2022/05/26 06:17:14;;;;;;;0.08;0.08;;;15.10;99.90;;;;;;5053049;28;20091;-81
2022/05/26 06:19:41;;;;;;;0.00;0.00;;;15.00;99.90;;;;;;5053036;28;20489;-81
2022/05/26 06:22:13;;;;;;;0.00;0.00;;;15.00;99.90;;;;;;5053080;28;20052;-80
2022/05/26 06:24:39;;;;;;;0.00;0.00;;;15.00;99.90;;;;;;5036679;28;20048;-80
2022/05/26 06:29:57;;;;;;;0.00;0.00;;;15.00;99.90;;;;;;5053026;28;20139;-80
2022/05/26 06:37:54;;;;;;;0.00;0.00;;;15.10;99.90;;;;;;5053119;28;20059;-80
2022/05/26 06:40:19;;;;;;;0.00;0.00;;;15.10;99.90;;;;;;5053031;28;20044;-80
2022/05/26 06:42:47;;;;;;;0.10;0.05;;;15.20;99.90;;;;;;5052767;28;20038;-80
2022/05/26 06:45:15;;;;;;;0.05;0.00;;;15.30;99.90;;;;;;5052667;28;20050;-81
2022/05/26 06:47:42;;;;;;;0.00;0.00;;;15.30;99.90;;;;;;5036068;28;20135;-81
2022/05/26 06:50:08;;;;;;;0.00;0.00;;;15.40;99.90;;;;;;5052601;28;20060;-80
2022/05/26 06:52:34;;;;;;;0.00;0.00;;;15.50;99.90;;;;;;5036023;28;20052;-81
2022/05/26 06:55:03;;;;;;;0.00;0.00;;;15.60;99.90;;;;;;5052294;28;20429;-81
2022/05/26 06:57:28;;;;;;;0.00;0.00;;;15.60;99.90;;;;;;5052984;28;20061;-81
2022/05/26 06:59:55;;;;;;;0.00;0.00;;;15.70;99.90;;;;;;5036247;28;20105;-81
2022/05/26 07:02:20;;;;;;;0.00;0.00;;;15.80;99.90;;;;;;5052695;28;20056;-81
2022/05/26 07:04:46;;;;;;;0.10;0.10;;;15.90;99.90;;;;;;5035786;28;20064;-80
2022/05/26 07:07:14;;;;;;;0.00;0.00;;;16.00;99.90;;;;;;5052625;28;20136;-81
2022/05/26 07:09:40;;;;;;;0.10;0.10;;;16.20;99.90;;;;;;5054017;28;20049;-80
2022/05/26 07:12:06;;;;;;;0.00;0.00;;;16.30;99.90;;;;;;5039961;28;20056;-81
2022/05/26 07:14:32;;;;;;;0.00;0.00;;;16.50;99.90;;;;;;5056479;28;20044;-80
2022/05/26 07:16:58;;;;;;;0.00;0.00;;;16.60;99.90;;;;;;5039399;28;20477;-81
2022/05/26 07:19:23;;;;;;;0.50;0.30;;;16.50;99.90;;;;;;5039837;28;20055;-80
2022/05/26 07:21:49;;;;;;;0.05;0.05;;;16.60;99.90;;;;;;5056683;28;20080;-81
2022/05/26 07:24:20;;;;;;;0.28;0.17;;;16.50;99.90;;;;;;5056339;28;20049;-81
2022/05/26 07:26:47;;;;;;;0.00;0.00;;;16.40;99.90;;;;;;5039948;28;20041;-81
2022/05/26 07:29:15;;;;;;;0.00;0.00;;;16.40;99.90;;;;;;5039664;28;20079;-81
2022/05/26 07:31:41;;;;;;;0.00;0.00;;;16.40;99.90;;;;;;5056731;28;20072;-81
2022/05/26 07:34:07;;;;;;;0.00;0.00;;;16.40;99.90;;;;;;5039539;28;20091;-81
2022/05/26 07:42:06;;;;;;;0.00;0.00;;;16.50;99.90;;;;;;5056283;28;19921;-81
2022/05/26 07:44:36;;;;;;;0.10;0.10;;;16.60;99.90;;;;;;5039927;28;20053;-81
2022/05/26 07:47:06;;;;;;;0.00;0.00;;;16.70;99.90;;;;;;5039382;28;20049;-81
2022/05/26 07:49:36;;;;;;;0.00;0.00;;;16.80;99.90;;;;;;5039024;28;20543;-81
2022/05/26 07:52:03;;;;;;;0.00;0.00;;;16.80;99.90;;;;;;5055751;28;20076;-81
2022/05/26 07:54:29;;;;;;;0.00;0.00;;;16.90;99.90;;;;;;5055764;28;20052;-81
2022/05/26 07:56:55;;;;;;;0.00;0.00;;;16.90;99.90;;;;;;5038530;28;20064;-80
2022/05/26 07:59:21;;;;;;;0.00;0.00;;;16.90;99.90;;;;;;5055918;28;20060;-81
2022/05/26 08:01:48;;;;;;;0.00;0.00;;;16.90;99.90;;;;;;5056223;28;20048;-81
2022/05/26 08:04:14;;;;;;;0.00;0.00;;;17.00;99.90;;;;;;5039359;28;20052;-81
2022/05/26 08:06:40;;;;;;;0.00;0.00;;;17.10;99.90;;;;;;5055558;28;20124;-81
2022/05/26 08:09:05;;;;;;;0.00;0.00;;;17.10;99.90;;;;;;5055577;28;20558;-81
2022/05/26 08:11:31;;;;;;;0.00;0.00;;;17.10;99.90;;;;;;5055150;28;20499;-81
2022/05/26 08:13:57;;;;;;;0.28;0.10;;;17.20;99.90;;;;;;5055700;28;20428;-81
2022/05/26 08:16:22;;;;;;;0.00;0.00;;;17.20;99.90;;;;;;5055123;28;20037;-81
2022/05/26 08:18:48;;;;;;;0.00;0.00;;;17.30;99.90;;;;;;5038709;28;20057;-80
2022/05/26 08:21:17;;;;;;;0.00;0.00;;;17.30;99.90;;;;;;5054885;28;20045;-81
2022/05/26 08:23:43;;;;;;;0.60;0.10;;;17.40;99.90;;;;;;5055287;28;20049;-81
2022/05/26 08:26:08;;;;;;;0.00;0.00;;;17.40;99.90;;;;;;5054972;28;20052;-81
2022/05/26 08:28:34;;;;;;;0.00;0.00;;;17.40;99.90;;;;;;5055217;28;20084;-80
2022/05/26 08:31:01;;;;;;;1.35;0.00;;;17.40;99.90;;;;;;5038366;28;20131;-81
2022/05/26 08:33:28;;;;;;;0.00;0.00;;;17.50;99.90;;;;;;5055517;28;20448;-80
2022/05/26 08:36:02;;;;;;;0.00;0.00;;;17.60;99.90;;;;;;5038128;28;20045;-81
2022/05/26 08:38:28;;;;;;;0.00;0.00;;;17.70;99.90;;;;;;5038471;28;20056;-80
2022/05/26 08:40:53;;;;;;;0.00;0.00;;;17.80;99.90;;;;;;5054912;28;20099;-80
2022/05/26 08:43:23;;;;;;;0.00;0.00;;;18.00;99.90;;;;;;5038549;28;20053;-80
2022/05/26 08:45:51;;;;;;;0.00;0.00;;;18.10;99.90;;;;;;5055476;28;20385;-80
2022/05/26 08:48:44;;;;;;;0.00;0.00;;;18.30;99.90;;;;;;5038407;28;20049;-80
2022/05/26 08:51:17;;;;;;;0.00;0.00;;;18.20;99.90;;;;;;4997657;28;20061;-80
2022/05/26 08:53:43;;;;;;;0.00;0.00;;;18.20;99.90;;;;;;4997715;28;20065;-80
2022/05/26 08:56:12;;;;;;;0.00;0.00;;;18.40;99.90;;;;;;4997182;28;20061;-80
2022/05/26 08:58:45;;;;;;;0.03;0.00;;;18.50;99.90;;;;;;4997549;28;20046;-80
2022/05/26 09:01:15;;;;;;;0.00;0.00;;;18.50;99.90;;;;;;4981988;28;20054;-80
2022/05/26 09:03:41;;;;;;;0.00;0.00;;;18.70;99.90;;;;;;4997629;28;20057;-80
2022/05/26 09:06:10;;;;;;;0.00;0.00;;;18.80;99.90;;;;;;4997293;28;20057;-80
2022/05/26 09:14:30;;;;;;;0.10;0.00;;;18.50;99.90;;;;;;4997079;28;20050;-80
2022/05/26 09:16:59;;;;;;;0.55;0.32;;;18.30;99.90;;;;;;4996484;28;20053;-80
2022/05/26 09:19:29;;;;;;;0.00;0.00;;;18.10;99.90;;;;;;4997159;28;20084;-80
2022/05/26 09:21:55;;;;;;;0.00;0.00;;;18.00;99.90;;;;;;4981085;28;20054;-80
2022/05/26 09:24:31;;;;;;;11.77;0.57;;;17.90;99.60;;;;;;4980735;28;20164;-80
2022/05/26 09:27:01;;;;;;;0.00;0.00;;;17.90;99.90;;;;;;4998312;28;20076;-80
2022/05/26 09:29:35;;;;;;;0.00;0.00;;;18.20;99.90;;;;;;5037230;28;20051;-80
2022/05/26 09:32:02;;;;;;;0.00;0.00;;;18.20;98.40;;;;;;5053000;28;20048;-80
2022/05/26 09:34:33;;;;;;;0.00;0.00;;;18.40;99.00;;;;;;5053971;28;20048;-80
2022/05/26 09:37:00;;;;;;;0.00;0.00;;;18.50;98.70;;;;;;5054493;28;20120;-80
2022/05/26 09:39:37;;;;;;;0.00;0.00;;;18.60;98.60;;;;;;5037446;28;20473;-80
2022/05/26 09:42:06;;;;;;;0.88;0.38;;;18.80;99.50;;;;;;5054176;28;20128;-80
2022/05/26 09:44:54;;;;;;;0.00;0.00;;;19.00;99.40;;;;;;5037259;28;20141;-80
2022/05/26 09:47:28;;;;;;;2.22;0.35;;;19.10;98.60;;;;;;5054637;28;20056;-80
2022/05/26 09:49:57;;;;;;;0.00;0.00;;;19.20;97.80;;;;;;5037373;28;20166;-80
2022/05/26 09:52:28;;;;;;;0.00;0.00;;;19.20;98.10;;;;;;5037738;28;20110;-80
2022/05/26 09:55:17;;;;;;;0.00;0.00;;;19.40;99.90;;;;;;5037090;28;20048;-80
2022/05/26 09:57:44;;;;;;;0.00;0.00;;;19.50;98.40;;;;;;5053471;28;20053;-80
2022/05/26 10:00:35;;;;;;;0.00;0.00;;;19.40;98.90;;;;;;5053603;28;20111;-80
2022/05/26 10:03:08;;;;;;;2.80;0.60;;;19.50;98.70;;;;;;5053877;28;20119;-80
2022/05/26 10:06:01;;;;;;;0.00;0.00;;;19.30;97.90;;;;;;5053755;28;20512;-80
2022/05/26 10:08:52;;;;;;;0.00;0.00;;;19.10;97.70;;;;;;5053695;28;20057;-80
2022/05/26 10:11:48;;;;;;;0.00;0.00;;;19.20;99.50;;;;;;4979996;28;20145;-80
2022/05/26 10:14:19;;;;;;;0.00;0.00;;;19.50;98.70;;;;;;4996476;28;20137;-79
2022/05/26 10:16:49;;;;;;;0.00;0.00;;;19.70;98.60;;;;;;4996071;28;20042;-80
2022/05/26 10:19:51;;;;;;;0.10;0.05;;;19.80;98.70;;;;;;4980401;28;20141;-80
2022/05/26 10:22:56;;;;;;;0.00;0.00;;;19.70;96.70;;;;;;4996228;28;20136;-80
2022/05/26 10:25:29;;;;;;;0.00;0.00;;;19.50;98.90;;;;;;4996797;28;20054;-80
2022/05/26 10:28:22;;;;;;;0.00;0.00;;;19.30;98.60;;;;;;4980167;28;20145;-80
2022/05/26 10:30:59;;;;;;;0.00;0.00;;;19.10;98.40;;;;;;4996132;28;20149;-80
2022/05/26 10:33:30;;;;;;;0.00;0.00;;;18.90;98.60;;;;;;5004939;28;20057;-81
2022/05/26 10:36:08;;;;;;;0.00;0.00;;;18.70;99.90;;;;;;4996019;28;20050;-81
2022/05/26 10:39:06;;;;;;;0.00;0.00;;;18.60;99.10;;;;;;4996026;28;20054;-80
2022/05/26 10:41:57;;;;;;;0.80;0.63;;;18.30;99.00;;;;;;5003117;28;20409;-81
2022/05/26 10:44:40;;;;;;;0.00;0.00;;;18.10;99.90;;;;;;4991399;28;20065;-80
2022/05/26 10:47:11;;;;;;;0.00;0.00;;;18.00;99.90;;;;;;4999385;28;20088;-81
2022/05/26 10:49:44;;;;;;;0.00;0.00;;;18.10;99.90;;;;;;5065626;28;20532;-81
2022/05/26 10:52:12;;;;;;;0.00;0.00;;;18.60;99.90;;;;;;5055743;28;20567;-81
2022/05/26 10:54:54;;;;;;;0.00;0.00;;;19.00;99.90;;;;;;5056144;28;20052;-81
2022/05/26 10:57:43;;;;;;;0.00;0.00;;;19.20;99.90;;;;;;5067726;28;20558;-81
2022/05/26 11:00:13;;;;;;;5.93;0.43;;;19.20;99.90;;;;;;5072544;28;20054;-81
2022/05/26 11:02:38;;;;;;;0.00;0.00;;;19.10;99.90;;;;;;5052459;28;20095;-81
2022/05/26 11:05:14;;;;;;;0.03;0.00;;;19.00;99.90;;;;;;5052740;28;20084;-82
2022/05/26 11:07:54;;;;;;;0.00;0.00;;;18.90;99.40;;;;;;5035465;28;20067;-81
2022/05/26 11:10:43;;;;;;;0.00;0.00;;;19.20;99.90;;;;;;5036109;28;20060;-80
2022/05/26 11:13:33;;;;;;;0.10;0.10;;;19.60;99.90;;;;;;5037347;28;20090;-81
2022/05/26 11:19:38;;;;;;;0.00;0.00;;;20.00;99.90;;;;;;5034757;28;20047;-81
2022/05/26 11:22:05;;;;;;;0.00;0.00;;;20.00;99.90;;;;;;5034913;28;20562;-81
2022/05/26 11:24:32;;;;;;;0.00;0.00;;;20.00;99.90;;;;;;5034054;28;20041;-81
2022/05/26 11:27:09;;;;;;;0.17;0.10;;;20.10;99.70;;;;;;5034645;28;20057;-81
2022/05/26 11:29:44;;;;;;;0.00;0.00;;;20.40;99.90;;;;;;5017453;28;20560;-81
2022/05/26 11:37:52;;;;;;;0.00;0.00;;;20.20;98.20;;;;;;5035119;28;20194;-80
2022/05/26 11:40:42;;;;;;;0.10;0.10;;;19.90;98.40;;;;;;5034288;28;20092;-80
2022/05/26 11:43:08;;;;;;;0.00;0.00;;;19.90;98.40;;;;;;5018481;28;20052;-81
2022/05/26 11:45:42;;;;;;;0.00;0.00;;;20.20;99.40;;;;;;5018238;28;20444;-81
2022/05/26 11:48:32;;;;;;;0.00;0.00;;;20.60;99.00;;;;;;5034217;28;20048;-80
2022/05/26 11:51:02;;;;;;;0.75;0.55;;;20.60;97.70;;;;;;5034028;28;20049;-80
2022/05/26 11:53:28;;;;;;;0.00;0.00;;;20.30;97.90;;;;;;5044673;28;20125;-80
2022/05/26 11:55:58;;;;;;;0.65;0.28;;;20.50;99.20;;;;;;5053220;28;20496;-81
2022/05/26 11:58:44;;;;;;;0.00;0.00;;;20.80;98.80;;;;;;5055570;28;20049;-81
2022/05/26 12:01:34;;;;;;;0.00;0.00;;;21.10;97.10;;;;;;5056013;28;20056;-81
2022/05/26 12:04:15;;;;;;;0.00;0.00;;;21.00;95.50;;;;;;5055685;28;20362;-81
2022/05/26 12:06:54;;;;;;;0.00;0.00;;;20.80;95.00;;;;;;5055913;28;20048;-81
2022/05/26 12:09:21;;;;;;;0.55;0.17;;;20.70;96.10;;;;;;5038819;28;20072;-81
2022/05/26 12:12:02;;;;;;;0.00;0.00;;;20.60;95.80;;;;;;5039180;28;20053;-81
2022/05/26 12:14:40;;;;;;;0.40;0.25;;;20.50;96.20;;;;;;5038936;28;20480;-81
2022/05/26 12:17:31;;;;;;;0.08;0.05;;;20.30;95.80;;;;;;5038664;28;20469;-80
2022/05/26 12:20:10;;;;;;;0.00;0.00;;;20.00;96.30;;;;;;5055581;28;20048;-81
2022/05/26 12:22:47;;;;;;;3.75;0.20;;;19.80;97.80;;;;;;5055427;28;20527;-81
2022/05/26 12:25:33;;;;;;;3.13;0.47;;;20.10;98.40;;;;;;5054524;28;20053;-81
2022/05/26 12:28:04;;;;;;;1.45;0.57;;;20.50;98.20;;;;;;5055144;28;20049;-80
2022/05/26 12:30:45;;;;;;;0.00;0.00;;;20.40;96.40;;;;;;5055127;28;20480;-80
2022/05/26 12:33:27;;;;;;;0.00;0.00;;;20.10;96.20;;;;;;5038595;28;20053;-81
2022/05/26 12:36:11;;;;;;;0.00;0.00;;;20.00;95.60;;;;;;5038371;28;20041;-80
2022/05/26 12:38:46;;;;;;;0.90;0.38;;;20.40;96.40;;;;;;5038397;28;20057;-80
2022/05/26 12:41:35;;;;;;;0.00;0.00;;;20.60;97.00;;;;;;5055422;28;20056;-80
2022/05/26 12:44:19;;;;;;;0.38;0.32;;;20.80;95.00;;;;;;5054638;28;20044;-81
2022/05/26 12:47:07;;;;;;;0.00;0.00;;;20.70;93.50;;;;;;5038946;28;20052;-80
2022/05/26 12:50:17;;;;;;;0.00;0.00;;;20.50;94.40;;;;;;5040450;28;20052;-81
2022/05/26 12:52:56;;;;;;;0.00;0.00;;;20.60;96.00;;;;;;4992862;28;20085;-80
2022/05/26 12:55:28;;;;;;;0.00;0.00;;;21.00;97.90;;;;;;5006537;28;20045;-80
2022/05/26 12:58:18;;;;;;;0.13;0.10;;;21.20;96.80;;;;;;5005748;28;20076;-80
2022/05/26 13:01:06;;;;;;;0.00;0.00;;;21.50;95.40;;;;;;5006771;28;20053;-80
2022/05/26 13:03:41;;;;;;;0.00;0.00;;;21.50;91.70;;;;;;4990603;28;20529;-80
2022/05/26 13:06:29;;;;;;;0.00;0.00;;;21.40;93.50;;;;;;5012774;28;20398;-81
2022/05/26 13:09:16;;;;;;;0.10;0.10;;;21.20;92.90;;;;;;5008402;28;20062;-80
2022/05/26 13:11:52;;;;;;;0.00;0.00;;;20.90;91.70;;;;;;5006759;28;20042;-80
2022/05/26 13:14:44;;;;;;;0.10;0.00;;;20.90;93.60;;;;;;4991939;28;20080;-79
2022/05/26 13:17:10;;;;;;;0.00;0.00;;;21.20;94.80;;;;;;5014293;28;20132;-80
2022/05/26 13:19:44;;;;;;;0.00;0.00;;;21.30;94.10;;;;;;5009169;28;20069;-80
2022/05/26 13:22:25;;;;;;;1.50;0.38;;;21.30;92.90;;;;;;5000261;28;20132;-80
2022/05/26 13:25:00;;;;;;;0.00;0.00;;;21.50;93.00;;;;;;5000600;28;20049;-80
2022/05/26 13:27:39;;;;;;;0.20;0.15;;;21.50;90.70;;;;;;5017025;28;20401;-79
2022/05/26 13:33:08;;;;;;;0.00;0.00;;;21.00;84.30;;;;;;5054507;28;20377;-80
2022/05/26 13:35:41;;;;;;;0.00;0.00;;;20.80;88.00;;;;;;5071049;28;20423;-80
2022/05/26 13:38:32;;;;;;;0.00;0.00;;;20.80;92.50;;;;;;5054301;28;20195;-80
2022/05/26 13:41:00;;;;;;;0.10;0.10;;;20.80;90.70;;;;;;5071266;28;20045;-80
2022/05/26 13:43:27;;;;;;;6.05;0.47;;;20.70;91.00;;;;;;5038037;28;20099;-79
2022/05/26 13:45:54;;;;;;;0.00;0.00;;;20.60;92.50;;;;;;5037198;28;20048;-80
2022/05/26 13:48:32;;;;;;;0.17;0.17;;;20.60;93.70;;;;;;5037458;28;20057;-80
2022/05/26 13:51:28;;;;;;;0.00;0.00;;;20.50;92.20;;;;;;5070598;28;20052;-79
2022/05/26 13:54:12;;;;;;;0.10;0.00;;;20.40;92.50;;;;;;5036790;28;20138;-80
2022/05/26 13:56:38;;;;;;;0.00;0.00;;;20.40;92.80;;;;;;5070194;28;20119;-79